Time;durP1;ratioP1;P1;durP2;ratioP2;P2;SDS_P1;SDS_P2;PMS_P1;PMS_P2;Temp;Humidity;BMP_temperature;BMP_pressure;BME280_temperature;BME280_humidity;BME280_pressure;Samples;Min_cycle;Max_cycle;Signal;HPM_P1;HPM_P2
2023/09/26 06:11:45;;;;;;;9.18;6.53;;;8.30;99.90;;;;;;5132355;27;20572;-78
2023/09/26 06:14:11;;;;;;;7.45;6.75;;;8.50;99.90;;;;;;5149009;27;20180;-78
2023/09/26 06:16:36;;;;;;;8.63;7.10;;;8.50;99.90;;;;;;5150178;27;20206;-78
2023/09/26 06:19:02;;;;;;;7.30;6.70;;;8.50;99.90;;;;;;5131879;28;20176;-78
2023/09/26 06:21:28;;;;;;;7.63;7.03;;;8.60;99.90;;;;;;5131979;28;20197;-78
2023/09/26 06:23:55;;;;;;;9.75;6.53;;;8.70;99.90;;;;;;5131696;28;20219;-78
2023/09/26 06:26:21;;;;;;;8.77;6.70;;;8.70;99.90;;;;;;5131954;28;20204;-77
2023/09/26 06:28:47;;;;;;;12.10;6.30;;;8.70;99.90;;;;;;5131548;28;20195;-77
2023/09/26 06:31:14;;;;;;;7.28;6.63;;;8.70;99.90;;;;;;5131157;28;20203;-82
2023/09/26 06:33:39;;;;;;;8.35;7.07;;;8.80;99.90;;;;;;5130983;28;20168;-82
2023/09/26 06:36:17;;;;;;;8.70;6.82;;;9.00;99.90;;;;;;5131279;28;20168;-82
2023/09/26 06:38:43;;;;;;;6.63;6.03;;;9.10;99.90;;;;;;5130085;28;20191;-82
2023/09/26 06:41:09;;;;;;;8.15;5.85;;;9.30;99.90;;;;;;5130964;28;20180;-82
2023/09/26 06:43:36;;;;;;;6.60;5.97;;;9.50;99.90;;;;;;5130240;28;20215;-82
2023/09/26 06:46:08;;;;;;;7.07;5.63;;;9.70;99.90;;;;;;5131085;28;20198;-82
2023/09/26 06:48:43;;;;;;;6.30;5.70;;;9.90;99.90;;;;;;5130171;28;20199;-82
2023/09/26 06:51:08;;;;;;;8.77;6.70;;;10.00;99.90;;;;;;5130700;28;20289;-82
2023/09/26 06:53:35;;;;;;;8.52;6.03;;;10.20;99.90;;;;;;5130120;28;20594;-82
2023/09/26 06:56:06;;;;;;;6.18;5.22;;;10.30;99.90;;;;;;5130115;28;20176;-82
2023/09/26 06:58:32;;;;;;;5.65;4.68;;;10.50;99.90;;;;;;5130885;28;20264;-83
2023/09/26 07:00:58;;;;;;;5.63;5.07;;;10.60;99.90;;;;;;5129947;28;20176;-83
2023/09/26 07:03:27;;;;;;;5.65;5.15;;;10.70;99.90;;;;;;5130089;28;20179;-83
2023/09/26 07:05:53;;;;;;;6.03;5.00;;;10.80;99.90;;;;;;5129674;28;20168;-83
2023/09/26 07:08:18;;;;;;;6.00;4.88;;;10.80;99.90;;;;;;5129830;28;20298;-83
2023/09/26 07:10:44;;;;;;;8.45;5.53;;;11.00;99.90;;;;;;5129225;28;20295;-83
2023/09/26 07:13:10;;;;;;;6.25;5.05;;;11.10;99.90;;;;;;5129441;28;20217;-83
2023/09/26 07:15:35;;;;;;;5.90;5.40;;;11.20;99.90;;;;;;5129443;28;20168;-83
2023/09/26 07:18:06;;;;;;;6.95;5.45;;;11.30;99.90;;;;;;5129372;28;20221;-83
2023/09/26 07:20:33;;;;;;;7.35;5.25;;;11.40;99.90;;;;;;5130372;28;20196;-84
2023/09/26 07:22:59;;;;;;;8.15;5.32;;;11.60;99.90;;;;;;5116578;28;20176;-86
2023/09/26 07:25:25;;;;;;;7.85;5.47;;;11.70;99.90;;;;;;5116438;28;20187;-85
2023/09/26 07:27:50;;;;;;;6.22;5.55;;;11.80;99.90;;;;;;5111656;28;20201;-85
2023/09/26 07:30:20;;;;;;;6.00;5.22;;;11.90;99.90;;;;;;5098927;28;20212;-85
2023/09/26 07:32:46;;;;;;;6.78;5.45;;;12.00;99.90;;;;;;5094432;28;20557;-85
2023/09/26 07:35:19;;;;;;;5.47;4.95;;;12.10;99.90;;;;;;5112129;28;20165;-85
2023/09/26 07:38:20;;;;;;;6.22;5.60;;;12.20;99.90;;;;;;5168364;22;20230;-77
2023/09/26 07:40:47;;;;;;;6.18;5.57;;;12.40;99.90;;;;;;5034429;28;20234;-76
2023/09/26 07:43:13;;;;;;;7.00;5.25;;;12.50;99.90;;;;;;5035995;28;20312;-77
2023/09/26 07:45:39;;;;;;;6.53;5.65;;;12.60;99.90;;;;;;5035918;28;20643;-76
2023/09/26 07:48:05;;;;;;;5.63;5.13;;;12.70;99.90;;;;;;5035015;28;20179;-77
2023/09/26 07:50:31;;;;;;;5.70;5.20;;;12.80;99.90;;;;;;5034508;28;20207;-77
2023/09/26 07:52:56;;;;;;;5.72;5.22;;;13.00;99.90;;;;;;5035023;28;20215;-78
2023/09/26 07:55:24;;;;;;;6.00;5.40;;;13.20;99.90;;;;;;5034935;28;20225;-77
2023/09/26 07:57:49;;;;;;;5.55;5.15;;;13.30;99.90;;;;;;5035280;28;20254;-77
2023/09/26 08:00:15;;;;;;;5.45;4.97;;;13.40;99.90;;;;;;5034549;28;20265;-77
2023/09/26 08:02:41;;;;;;;6.20;5.60;;;13.60;99.90;;;;;;5034907;28;20269;-77
2023/09/26 08:05:07;;;;;;;5.53;4.82;;;13.70;99.90;;;;;;5034931;28;20187;-77
2023/09/26 08:07:33;;;;;;;9.38;5.70;;;13.80;99.90;;;;;;5034542;28;20198;-77
2023/09/26 08:10:00;;;;;;;11.13;9.18;;;13.90;99.90;;;;;;5034159;28;20203;-77
2023/09/26 08:12:27;;;;;;;6.95;6.35;;;14.00;99.90;;;;;;5034204;28;20191;-77
2023/09/26 08:14:53;;;;;;;6.35;5.75;;;14.20;99.90;;;;;;5035584;28;20182;-77
2023/09/26 08:17:19;;;;;;;6.75;6.13;;;14.30;99.90;;;;;;5034025;28;20209;-77
2023/09/26 08:19:45;;;;;;;7.00;6.50;;;14.40;99.90;;;;;;5034084;28;20170;-77
2023/09/26 08:22:10;;;;;;;7.10;6.50;;;14.50;99.90;;;;;;5034422;28;20179;-77
2023/09/26 08:24:36;;;;;;;5.60;5.20;;;14.60;99.90;;;;;;5034255;28;20641;-77
2023/09/26 08:27:02;;;;;;;5.93;5.43;;;14.70;99.90;;;;;;5034165;28;20206;-76
2023/09/26 08:29:27;;;;;;;5.88;5.47;;;14.80;99.90;;;;;;5034681;28;20181;-77
2023/09/26 08:31:54;;;;;;;6.38;5.88;;;14.90;99.90;;;;;;5034768;28;20634;-78
2023/09/26 08:34:20;;;;;;;7.57;6.82;;;15.00;99.90;;;;;;5033711;28;20175;-77
2023/09/26 08:36:46;;;;;;;9.48;8.63;;;15.10;99.90;;;;;;5033881;28;20203;-78
2023/09/26 08:39:12;;;;;;;7.40;6.25;;;15.10;99.90;;;;;;5034826;28;20206;-77
2023/09/26 08:41:38;;;;;;;6.53;6.03;;;15.30;99.90;;;;;;5033537;28;20198;-77
2023/09/26 08:44:04;;;;;;;7.47;5.93;;;15.40;99.90;;;;;;5034523;28;20186;-77
2023/09/26 08:46:31;;;;;;;6.28;5.65;;;15.50;99.90;;;;;;5033457;28;20286;-76
2023/09/26 08:48:58;;;;;;;7.10;6.20;;;15.50;99.90;;;;;;5034095;28;20225;-77
2023/09/26 08:51:24;;;;;;;6.60;5.60;;;15.60;99.90;;;;;;5034282;28;20207;-77
2023/09/26 08:53:49;;;;;;;6.57;5.97;;;15.70;99.90;;;;;;5033601;28;20175;-77
2023/09/26 08:56:16;;;;;;;6.53;6.03;;;15.80;99.90;;;;;;5033487;28;20248;-77
2023/09/26 08:58:44;;;;;;;6.13;5.57;;;15.80;99.90;;;;;;5034564;28;20171;-77
2023/09/26 09:01:10;;;;;;;8.27;5.68;;;15.90;99.90;;;;;;5034479;28;20187;-77
2023/09/26 09:03:35;;;;;;;5.80;5.40;;;16.00;99.90;;;;;;5033688;28;20274;-77
2023/09/26 09:06:01;;;;;;;6.20;5.60;;;16.10;99.90;;;;;;5033504;28;20195;-77
2023/09/26 09:08:26;;;;;;;7.32;5.82;;;16.10;99.90;;;;;;5033205;28;20237;-77
2023/09/26 09:10:54;;;;;;;8.38;5.20;;;16.20;99.90;;;;;;5033316;28;20194;-77
2023/09/26 09:13:33;;;;;;;6.25;5.57;;;16.20;99.90;;;;;;5033316;28;20182;-79
2023/09/26 09:16:15;;;;;;;7.65;6.22;;;16.40;99.90;;;;;;5033603;28;20268;-77
2023/09/26 09:18:43;;;;;;;6.38;5.75;;;16.40;99.90;;;;;;5033091;28;20167;-77
2023/09/26 09:21:30;;;;;;;8.90;6.10;;;16.50;99.90;;;;;;5032968;28;20178;-77
2023/09/26 09:24:00;;;;;;;6.72;6.03;;;16.50;99.90;;;;;;5032901;28;20194;-77
2023/09/26 09:26:30;;;;;;;7.90;7.07;;;16.50;99.90;;;;;;5033153;28;20207;-77
2023/09/26 09:28:58;;;;;;;13.25;11.05;;;16.60;99.90;;;;;;5033677;28;20506;-77
2023/09/26 09:31:26;;;;;;;9.30;8.40;;;16.60;99.90;;;;;;5032725;28;20285;-77
2023/09/26 09:33:52;;;;;;;7.57;6.88;;;16.80;99.90;;;;;;5033318;28;20171;-77
2023/09/26 09:36:18;;;;;;;7.38;6.47;;;16.90;99.90;;;;;;5032630;28;20195;-77
2023/09/26 09:38:44;;;;;;;7.40;6.80;;;17.00;99.90;;;;;;5032978;28;20171;-78
2023/09/26 09:41:10;;;;;;;8.75;5.78;;;17.10;99.90;;;;;;5034096;28;20194;-77
2023/09/26 09:43:36;;;;;;;7.95;7.35;;;17.30;99.90;;;;;;5032501;28;20187;-77
2023/09/26 09:46:10;;;;;;;6.68;6.07;;;17.30;99.90;;;;;;5032319;28;20298;-77
2023/09/26 09:48:42;;;;;;;7.65;5.20;;;17.40;99.90;;;;;;5032492;28;20178;-77
2023/09/26 09:51:10;;;;;;;6.10;5.50;;;17.50;99.90;;;;;;5033697;28;20663;-77
2023/09/26 09:53:38;;;;;;;6.82;6.32;;;17.50;99.90;;;;;;5032751;28;20178;-77
2023/09/26 09:56:08;;;;;;;5.40;4.90;;;17.60;99.90;;;;;;5032157;28;20249;-77
2023/09/26 09:58:44;;;;;;;5.32;4.82;;;17.70;99.90;;;;;;5035051;28;20167;-78
2023/09/26 10:01:13;;;;;;;8.35;6.20;;;17.80;99.90;;;;;;5032318;28;20191;-77
2023/09/26 10:03:38;;;;;;;5.97;5.47;;;17.90;99.90;;;;;;5032372;28;20209;-78
2023/09/26 10:06:06;;;;;;;6.32;5.70;;;17.80;99.90;;;;;;5032319;28;20198;-77
2023/09/26 10:08:33;;;;;;;6.15;5.55;;;17.90;99.90;;;;;;5033425;28;20758;-78
2023/09/26 10:10:59;;;;;;;8.40;5.40;;;17.90;99.90;;;;;;5032623;28;20189;-78
2023/09/26 10:13:26;;;;;;;8.38;5.30;;;17.90;99.90;;;;;;5032488;28;20183;-78
2023/09/26 10:16:05;;;;;;;5.63;5.13;;;17.90;99.90;;;;;;5031914;28;20198;-77
2023/09/26 10:18:35;;;;;;;9.25;5.30;;;18.10;99.90;;;;;;5032203;28;20170;-77
2023/09/26 10:21:01;;;;;;;5.82;5.32;;;18.20;99.90;;;;;;5032042;28;20206;-77
2023/09/26 10:23:27;;;;;;;6.10;5.50;;;18.20;99.90;;;;;;5032136;28;20183;-77
2023/09/26 10:32:34;;;;;;;5.25;4.50;;;18.40;99.90;;;;;;5073170;28;20192;-77
2023/09/26 10:35:25;;;;;;;6.43;4.47;;;18.50;99.90;;;;;;5055447;28;20277;-77
2023/09/26 10:38:20;;;;;;;6.95;4.43;;;18.60;99.90;;;;;;5035623;28;20190;-78
2023/09/26 10:40:47;;;;;;;6.40;4.15;;;18.60;99.90;;;;;;5053068;28;20753;-78
2023/09/26 10:43:40;;;;;;;4.97;4.57;;;18.70;99.90;;;;;;5036311;28;20182;-78
2023/09/26 10:56:31;;;;;;;7.50;3.70;;;19.00;99.90;;;;;;4983685;28;20330;-77
2023/09/26 11:06:24;;;;;;;4.20;3.80;;;19.20;99.90;;;;;;4995767;28;20211;-77
2023/09/26 11:09:41;;;;;;;4.25;3.90;;;19.30;99.90;;;;;;5039018;28;20228;-77
2023/09/26 11:12:29;;;;;;;4.35;3.80;;;19.30;99.90;;;;;;5024202;28;20236;-78
2023/09/26 11:15:07;;;;;;;5.65;4.32;;;19.40;99.90;;;;;;5039294;28;20170;-78
2023/09/26 11:17:56;;;;;;;4.55;3.83;;;19.40;99.90;;;;;;5038330;28;20194;-77
2023/09/26 11:20:37;;;;;;;6.50;3.88;;;19.50;99.90;;;;;;5038209;28;20251;-77
2023/09/26 11:23:57;;;;;;;3.92;3.63;;;19.50;99.90;;;;;;5056555;28;20214;-77
2023/09/26 11:27:02;;;;;;;4.53;3.65;;;19.60;99.90;;;;;;4996136;28;20289;-77
2023/09/26 11:30:58;;;;;;;3.67;3.38;;;19.60;99.90;;;;;;5055092;28;20190;-77
2023/09/26 11:33:54;;;;;;;7.13;4.38;;;19.70;99.90;;;;;;5039621;28;20174;-77
2023/09/26 11:37:05;;;;;;;4.50;3.83;;;19.70;99.90;;;;;;5033057;28;20688;-77
2023/09/26 11:43:17;;;;;;;4.25;3.83;;;19.90;99.90;;;;;;5055749;28;20181;-77
2023/09/26 11:46:30;;;;;;;;;;;;;;;;;;;;;
2023/09/26 11:49:19;;;;;;;5.22;3.80;;;19.90;99.90;;;;;;5056130;28;20252;-77
2023/09/26 11:52:07;;;;;;;4.53;3.20;;;20.00;99.90;;;;;;5035222;28;20190;-77
2023/09/26 11:54:38;;;;;;;6.57;4.13;;;20.00;99.90;;;;;;5037945;28;20190;-78
2023/09/26 11:57:24;;;;;;;4.55;3.72;;;20.20;99.90;;;;;;5055752;28;20190;-77
2023/09/26 12:03:21;;;;;;;4.28;3.75;;;20.20;99.90;;;;;;5041335;28;20189;-77
2023/09/26 12:05:57;;;;;;;3.70;3.40;;;20.20;99.90;;;;;;5035505;28;20289;-77
2023/09/26 12:08:26;;;;;;;5.00;3.70;;;20.20;99.90;;;;;;5038073;28;20214;-78
2023/09/26 12:10:52;;;;;;;3.60;3.30;;;20.20;99.90;;;;;;5038136;28;20188;-78
2023/09/26 12:13:17;;;;;;;3.95;3.55;;;20.20;99.90;;;;;;5055815;28;20604;-77
2023/09/26 12:15:43;;;;;;;3.80;3.40;;;20.20;99.90;;;;;;5055265;28;20197;-77
2023/09/26 12:18:10;;;;;;;4.70;3.25;;;20.20;99.90;;;;;;5037785;28;20175;-77
2023/09/26 12:20:35;;;;;;;4.72;3.50;;;20.20;99.90;;;;;;5037152;28;20210;-77
2023/09/26 12:23:02;;;;;;;4.10;3.70;;;20.30;99.90;;;;;;5037213;28;20273;-77
2023/09/26 12:25:36;;;;;;;4.50;3.70;;;20.30;99.90;;;;;;5037369;28;20174;-77
2023/09/26 12:28:03;;;;;;;5.15;3.97;;;20.30;99.90;;;;;;5038262;28;20174;-78
2023/09/26 12:30:28;;;;;;;3.97;3.55;;;20.40;99.90;;;;;;5037103;28;20538;-77
2023/09/26 12:32:54;;;;;;;5.20;3.50;;;20.40;99.90;;;;;;5037894;28;20236;-77
2023/09/26 12:35:20;;;;;;;4.80;3.50;;;20.50;99.90;;;;;;5037184;28;20182;-77
2023/09/26 12:57:01;;;;;;;;;;;;;;;;;;;;;
2023/09/26 13:00:24;;;;;;;4.03;3.63;;;20.50;99.90;;;;;;4934404;29;20189;-77
2023/09/26 13:07:41;;;;;;;;;;;;;;;;;;;;;
2023/09/26 13:14:09;;;;;;;5.68;3.60;;;20.60;99.90;;;;;;4888142;29;20199;-78
2023/09/26 13:16:57;;;;;;;5.97;3.63;;;20.60;99.90;;;;;;4881347;29;20216;-77
2023/09/26 13:26:03;;;;;;;4.15;3.70;;;20.50;99.90;;;;;;4982064;22;20318;-87
2023/09/26 13:29:07;;;;;;;5.78;3.70;;;20.50;99.90;;;;;;5035887;28;20225;-86
2023/09/26 13:31:49;;;;;;;5.88;3.88;;;20.50;99.90;;;;;;5036111;28;20255;-86
2023/09/26 13:34:25;;;;;;;4.07;3.78;;;20.50;99.90;;;;;;5036180;28;20181;-86
2023/09/26 13:36:52;;;;;;;4.40;4.00;;;20.50;99.90;;;;;;5054221;28;20166;-87
2023/09/26 13:39:19;;;;;;;4.32;3.92;;;20.50;99.90;;;;;;5036667;28;20182;-86
2023/09/26 13:42:01;;;;;;;4.45;3.63;;;20.60;99.90;;;;;;5036915;28;20218;-86
2023/09/26 13:44:52;;;;;;;4.30;3.50;;;20.60;99.90;;;;;;5037075;28;20167;-86
2023/09/26 13:54:05;;;;;;;3.50;3.30;;;20.70;99.90;;;;;;4954754;28;20588;-87
2023/09/26 14:03:26;;;;;;;;;;;;;;;;;;;;;
2023/09/26 14:16:39;;;;;;;4.07;3.70;;;20.40;99.90;;;;;;4993092;28;20243;-77
2023/09/26 14:20:25;;;;;;;5.05;3.85;;;20.40;99.90;;;;;;4990979;28;20190;-78
2023/09/26 14:23:58;;;;;;;;;;;;;;;;;;;;;
2023/09/26 14:27:06;;;;;;;;;;;;;;;;;;;;;
2023/09/26 14:47:17;;;;;;;4.20;3.50;;;20.10;99.90;;;;;;4976473;28;20328;-78
2023/09/26 14:49:43;;;;;;;7.88;3.80;;;20.00;99.90;;;;;;4976451;28;20169;-78
2023/09/26 14:52:47;;;;;;;3.72;3.40;;;20.00;99.90;;;;;;4960855;28;20247;-78
2023/09/26 14:55:13;;;;;;;5.00;3.63;;;20.00;99.90;;;;;;4960364;28;20177;-77
2023/09/26 14:57:38;;;;;;;6.68;3.85;;;20.00;99.90;;;;;;4959691;28;20297;-77
2023/09/26 15:00:08;;;;;;;3.90;3.50;;;20.00;99.90;;;;;;4999086;28;20223;-77
2023/09/26 15:02:37;;;;;;;3.85;3.13;;;20.00;99.90;;;;;;5018872;28;20254;-77
2023/09/26 15:05:03;;;;;;;4.05;3.42;;;20.00;99.90;;;;;;5019128;28;20589;-77
2023/09/26 15:07:36;;;;;;;7.40;3.88;;;19.90;99.90;;;;;;5036426;28;20195;-77
2023/09/26 15:10:39;;;;;;;4.72;3.35;;;19.80;99.90;;;;;;5036895;28;20175;-78
2023/09/26 15:16:27;;;;;;;5.05;3.50;;;19.80;99.90;;;;;;5036672;28;20198;-77
2023/09/26 15:18:55;;;;;;;8.15;3.35;;;19.90;99.90;;;;;;5018745;28;20707;-78
2023/09/26 15:21:20;;;;;;;5.38;3.58;;;19.80;99.90;;;;;;5019329;28;20202;-77
2023/09/26 15:23:47;;;;;;;5.70;3.50;;;19.70;99.90;;;;;;5018833;28;20178;-79
2023/09/26 16:21:04;;;;;;;9.40;4.50;;;18.60;99.90;;;;;;4931405;28;20215;-77
2023/09/26 16:27:34;;;;;;;7.18;5.07;;;18.30;99.90;;;;;;5035077;28;20214;-77
2023/09/26 16:37:49;;;;;;;5.18;4.65;;;18.00;99.90;;;;;;4991689;22;20264;-77
2023/09/26 16:40:15;;;;;;;5.25;4.75;;;17.90;99.90;;;;;;5054642;28;20288;-78
2023/09/26 16:43:06;;;;;;;5.90;4.43;;;17.80;99.90;;;;;;5037483;28;20206;-77
2023/09/26 16:45:31;;;;;;;7.30;5.38;;;17.70;99.90;;;;;;5036735;28;20550;-77
2023/09/26 16:48:01;;;;;;;6.75;4.80;;;17.60;99.90;;;;;;5036904;28;20167;-77
2023/09/26 16:50:34;;;;;;;5.65;5.15;;;17.50;99.90;;;;;;5036901;28;20177;-77
2023/09/26 16:53:02;;;;;;;8.18;4.90;;;17.40;99.90;;;;;;5036767;28;20177;-78
2023/09/26 16:55:29;;;;;;;5.50;5.00;;;17.30;99.90;;;;;;5035744;28;20192;-76
2023/09/26 17:02:14;;;;;;;5.95;5.40;;;17.10;99.90;;;;;;5032526;28;20215;-77
2023/09/26 17:05:19;;;;;;;;;;;;;;;;;;;;;
2023/09/26 17:15:00;;;;;;;9.63;5.32;;;16.60;99.90;;;;;;5040350;28;20216;-77
2023/09/26 17:21:40;;;;;;;19.77;5.90;;;16.60;99.90;;;;;;5053072;28;20209;-77
2023/09/26 17:28:12;;;;;;;14.85;5.50;;;16.40;99.90;;;;;;5054333;28;20225;-78
2023/09/26 17:30:58;;;;;;;14.15;5.90;;;16.30;99.90;;;;;;5024795;28;20182;-78
2023/09/26 17:37:25;;;;;;;18.15;6.65;;;16.20;99.90;;;;;;4973134;28;20208;-77
2023/09/26 17:39:50;;;;;;;10.48;5.90;;;16.10;99.90;;;;;;5002702;28;20285;-78
2023/09/26 17:42:16;;;;;;;8.00;5.45;;;16.10;99.90;;;;;;5035879;28;20261;-77
2023/09/26 17:44:41;;;;;;;9.35;6.10;;;16.10;99.90;;;;;;5036692;28;20537;-77
2023/09/26 17:47:07;;;;;;;12.88;5.63;;;16.00;99.90;;;;;;5036610;28;20645;-78
2023/09/26 17:49:32;;;;;;;15.00;5.88;;;15.90;99.90;;;;;;5036787;28;20265;-78
2023/09/26 17:52:46;;;;;;;16.83;5.55;;;15.90;99.90;;;;;;5035707;28;20186;-78
2023/09/26 17:55:11;;;;;;;16.45;5.60;;;15.80;99.90;;;;;;5035984;28;20625;-78
2023/09/26 17:57:46;;;;;;;13.00;5.70;;;15.70;99.90;;;;;;5035959;28;20226;-78
2023/09/26 18:00:14;;;;;;;15.85;5.53;;;15.70;99.90;;;;;;5035710;28;20197;-77
2023/09/26 18:02:40;;;;;;;14.90;6.35;;;15.60;99.90;;;;;;5035948;28;20600;-78
2023/09/26 18:05:05;;;;;;;9.27;5.28;;;15.60;99.90;;;;;;5035654;28;20213;-78
2023/09/26 18:07:31;;;;;;;9.52;6.30;;;15.50;99.90;;;;;;5035445;28;20229;-78
2023/09/26 18:09:57;;;;;;;23.00;7.60;;;15.50;99.90;;;;;;5035746;28;20216;-77
2023/09/26 18:12:41;;;;;;;15.25;7.05;;;15.40;99.90;;;;;;5035437;28;20261;-78
2023/09/26 18:15:07;;;;;;;22.83;7.10;;;15.30;99.90;;;;;;5035809;28;20644;-77
2023/09/26 18:18:19;;;;;;;25.70;6.70;;;15.20;99.90;;;;;;5035317;28;20240;-77
2023/09/26 18:20:46;;;;;;;30.95;7.95;;;15.10;99.90;;;;;;5053421;28;20194;-77
2023/09/26 18:23:12;;;;;;;34.95;7.47;;;15.00;99.90;;;;;;5035475;28;20186;-77
2023/09/26 18:25:42;;;;;;;17.40;7.45;;;15.00;99.90;;;;;;5035302;28;20181;-77
2023/09/26 18:28:08;;;;;;;24.17;7.38;;;14.90;99.90;;;;;;5035511;28;20166;-78
2023/09/26 18:30:34;;;;;;;34.35;7.35;;;14.90;99.90;;;;;;5035332;28;20186;-78
2023/09/26 18:32:59;;;;;;;41.95;8.75;;;14.80;99.90;;;;;;5035213;28;20663;-78
2023/09/26 18:35:25;;;;;;;38.60;8.52;;;14.80;99.90;;;;;;5035823;28;20174;-77
2023/09/26 18:37:51;;;;;;;17.83;8.15;;;14.70;99.90;;;;;;5035229;28;20205;-77
2023/09/26 18:40:16;;;;;;;37.75;9.32;;;14.60;99.90;;;;;;5035138;28;20293;-77
2023/09/26 18:43:00;;;;;;;26.48;8.85;;;14.50;99.90;;;;;;5035391;28;20657;-77
2023/09/26 18:48:38;;;;;;;13.40;7.22;;;14.40;99.90;;;;;;5106308;22;20348;-77
2023/09/26 18:51:57;;;;;;;8.18;6.22;;;14.40;99.90;;;;;;5034101;28;20568;-77
2023/09/26 18:54:22;;;;;;;8.70;6.25;;;14.40;99.90;;;;;;5053185;28;20605;-77
2023/09/26 18:56:48;;;;;;;14.93;6.78;;;14.40;99.90;;;;;;5035707;28;20194;-77
2023/09/26 18:59:25;;;;;;;10.63;6.90;;;14.40;99.90;;;;;;5035335;28;20547;-77
2023/09/26 19:01:50;;;;;;;12.00;6.38;;;14.40;99.90;;;;;;5035891;28;20198;-77
2023/09/26 19:04:16;;;;;;;13.90;6.80;;;14.40;99.90;;;;;;5035308;28;20171;-77
2023/09/26 19:06:41;;;;;;;13.80;7.40;;;14.30;99.90;;;;;;5035016;28;20228;-77
2023/09/26 19:09:07;;;;;;;16.08;7.15;;;14.20;99.90;;;;;;5035487;28;20170;-78
2023/09/26 19:14:55;;;;;;;12.05;7.22;;;14.00;99.90;;;;;;5053175;28;20164;-78
2023/09/26 19:17:20;;;;;;;9.65;7.78;;;14.00;99.90;;;;;;5034939;28;20199;-77
2023/09/26 19:20:31;;;;;;;14.27;7.78;;;13.90;99.90;;;;;;5056150;28;20181;-77
2023/09/26 19:22:57;;;;;;;9.25;7.10;;;13.80;99.90;;;;;;5038498;28;20174;-77
2023/09/26 19:25:48;;;;;;;10.13;7.00;;;13.80;99.90;;;;;;5056489;28;20537;-77
2023/09/26 19:28:20;;;;;;;8.88;7.20;;;13.80;99.90;;;;;;5039216;28;20236;-76
2023/09/26 19:30:57;;;;;;;7.13;6.47;;;13.80;99.90;;;;;;5038374;28;20163;-76
2023/09/26 19:33:26;;;;;;;8.57;6.78;;;13.80;99.90;;;;;;5038339;28;20162;-76
2023/09/26 19:35:52;;;;;;;7.45;6.72;;;13.90;99.90;;;;;;5037897;28;20213;-78
2023/09/26 19:38:17;;;;;;;9.70;7.00;;;13.80;99.90;;;;;;5039187;28;20178;-78
2023/09/26 19:40:44;;;;;;;9.10;6.75;;;13.80;99.90;;;;;;5038929;28;20205;-78
2023/09/26 19:43:11;;;;;;;7.63;6.18;;;13.80;99.90;;;;;;5038385;28;20538;-77
2023/09/26 19:46:01;;;;;;;6.50;6.03;;;13.70;99.90;;;;;;5038031;28;20502;-76
2023/09/26 19:48:59;;;;;;;8.15;6.85;;;13.70;99.90;;;;;;5037984;28;20166;-77
2023/09/26 19:51:38;;;;;;;7.65;6.95;;;13.70;99.90;;;;;;5038301;28;20631;-77
2023/09/26 19:54:04;;;;;;;10.70;7.50;;;13.60;99.90;;;;;;5037981;28;20607;-77
2023/09/26 19:56:30;;;;;;;13.82;7.63;;;13.60;99.90;;;;;;5037665;28;20226;-77
2023/09/26 19:58:55;;;;;;;12.65;7.25;;;13.50;99.90;;;;;;5056025;28;20185;-77
2023/09/26 20:01:25;;;;;;;11.80;7.28;;;13.50;99.90;;;;;;5037775;28;20683;-77
2023/09/26 20:03:58;;;;;;;10.18;8.07;;;13.40;99.90;;;;;;5038258;28;20178;-77
2023/09/26 20:06:24;;;;;;;8.25;7.45;;;13.40;99.90;;;;;;5055349;28;20221;-76
2023/09/26 20:08:53;;;;;;;11.00;7.88;;;13.40;99.90;;;;;;5055383;28;20205;-77
2023/09/26 20:11:19;;;;;;;11.40;7.80;;;13.50;99.90;;;;;;5038409;28;20178;-77
2023/09/26 20:13:44;;;;;;;9.93;7.95;;;13.50;99.90;;;;;;5038004;28;20174;-78
2023/09/26 20:16:10;;;;;;;9.25;8.30;;;13.40;99.90;;;;;;5037856;28;20233;-77
2023/09/26 20:18:36;;;;;;;11.00;7.85;;;13.50;99.90;;;;;;5037825;28;20182;-77
2023/09/26 20:21:02;;;;;;;12.13;7.68;;;13.50;99.90;;;;;;5037724;28;20575;-78
2023/09/26 20:23:27;;;;;;;10.23;8.18;;;13.40;99.90;;;;;;5037755;28;20269;-77
2023/09/26 20:26:05;;;;;;;13.57;8.48;;;13.40;99.90;;;;;;5037269;28;20198;-77
2023/09/26 20:29:10;;;;;;;9.57;8.52;;;13.30;99.90;;;;;;5037773;28;20175;-77
2023/09/26 20:31:35;;;;;;;10.45;8.93;;;13.30;99.90;;;;;;5037312;28;20261;-77
2023/09/26 20:34:02;;;;;;;14.60;9.15;;;13.30;99.90;;;;;;5037115;28;20197;-77
2023/09/26 20:39:46;;;;;;;9.88;7.72;;;13.30;99.90;;;;;;5055162;28;20166;-76
2023/09/26 20:42:12;;;;;;;9.73;8.77;;;13.30;99.90;;;;;;5037194;28;20206;-76
2023/09/26 20:44:37;;;;;;;12.27;8.63;;;13.20;99.90;;;;;;5055029;28;20170;-77
2023/09/26 20:47:03;;;;;;;10.75;8.60;;;13.20;99.90;;;;;;5036838;28;20639;-77
2023/09/26 20:49:32;;;;;;;10.95;8.38;;;13.10;99.90;;;;;;5037114;28;20277;-77
2023/09/26 20:52:03;;;;;;;9.57;8.32;;;13.10;99.90;;;;;;5036724;28;20200;-77
2023/09/26 20:54:31;;;;;;;9.23;8.43;;;13.00;99.90;;;;;;5036821;28;20167;-77
2023/09/26 20:56:57;;;;;;;9.93;8.23;;;13.00;99.90;;;;;;5036416;28;20198;-77
2023/09/26 20:59:22;;;;;;;11.40;7.75;;;12.90;99.90;;;;;;5036861;28;20606;-77
2023/09/26 21:01:48;;;;;;;9.57;7.35;;;12.90;99.90;;;;;;5037724;28;20197;-77
2023/09/26 21:04:26;;;;;;;9.25;7.95;;;12.80;99.90;;;;;;5036877;28;20174;-76
2023/09/26 21:06:52;;;;;;;9.93;7.65;;;12.80;99.90;;;;;;5054330;28;20224;-77
2023/09/26 21:09:20;;;;;;;11.55;7.35;;;12.80;99.90;;;;;;5036370;28;20612;-77
2023/09/26 21:11:45;;;;;;;13.23;7.72;;;12.70;99.90;;;;;;5054306;28;20241;-77
2023/09/26 21:14:11;;;;;;;8.95;8.05;;;12.70;99.90;;;;;;5036949;28;20274;-77
2023/09/26 21:16:36;;;;;;;12.82;8.88;;;12.70;99.90;;;;;;5036619;28;20198;-77
2023/09/26 21:19:02;;;;;;;8.73;7.70;;;12.60;99.90;;;;;;5036328;28;20224;-77
2023/09/26 21:21:28;;;;;;;11.45;7.75;;;12.60;99.90;;;;;;5036583;28;20206;-77
2023/09/26 21:23:54;;;;;;;8.50;7.63;;;12.60;99.90;;;;;;5036242;28;20178;-77
2023/09/26 21:27:07;;;;;;;8.77;8.00;;;12.60;99.90;;;;;;5035990;28;20220;-76
2023/09/26 21:29:33;;;;;;;9.90;7.72;;;12.60;99.90;;;;;;5036137;28;20158;-77
2023/09/26 21:31:58;;;;;;;11.90;7.90;;;12.50;99.90;;;;;;5036258;28;20218;-77
2023/09/26 21:34:24;;;;;;;8.95;8.15;;;12.50;99.90;;;;;;5037295;28;20303;-77
2023/09/26 21:37:25;;;;;;;8.75;7.95;;;12.50;99.90;;;;;;5036234;28;20319;-77
2023/09/26 21:43:13;;;;;;;8.90;7.90;;;12.40;99.90;;;;;;5054117;28;20169;-77
2023/09/26 21:45:39;;;;;;;11.48;8.13;;;12.40;99.90;;;;;;5036037;28;20208;-77
2023/09/26 21:48:05;;;;;;;11.02;8.00;;;12.40;99.90;;;;;;5036164;28;20273;-77
2023/09/26 21:50:31;;;;;;;8.98;8.15;;;12.40;99.90;;;;;;5035637;28;20194;-77
2023/09/26 21:52:58;;;;;;;8.55;7.63;;;12.40;99.90;;;;;;5053645;28;20617;-77
2023/09/26 21:55:23;;;;;;;8.57;7.80;;;12.40;99.90;;;;;;5035749;28;20182;-77
2023/09/26 21:57:49;;;;;;;8.77;7.97;;;12.50;99.90;;;;;;5035611;28;20212;-77
2023/09/26 22:01:06;;;;;;;9.68;7.45;;;12.50;99.90;;;;;;5053793;28;20178;-77
2023/09/26 22:03:32;;;;;;;9.88;7.78;;;12.50;99.90;;;;;;5036459;28;20162;-77
2023/09/26 22:05:57;;;;;;;9.70;8.25;;;12.40;99.90;;;;;;5035633;28;20197;-77
2023/09/26 22:08:23;;;;;;;11.60;8.88;;;12.30;99.90;;;;;;5035647;28;20178;-77
2023/09/26 22:10:49;;;;;;;11.50;8.13;;;12.30;99.90;;;;;;5035583;28;20273;-77
2023/09/26 22:13:14;;;;;;;8.88;7.93;;;12.30;99.90;;;;;;5035637;28;20347;-77
2023/09/26 22:15:40;;;;;;;10.45;8.68;;;12.20;99.90;;;;;;5053217;28;20182;-76
2023/09/26 22:18:05;;;;;;;9.50;8.52;;;12.20;99.90;;;;;;5035578;28;20182;-77
2023/09/26 22:20:32;;;;;;;8.80;7.97;;;12.10;99.90;;;;;;5035427;28;20202;-77
2023/09/26 22:22:58;;;;;;;10.48;8.77;;;12.10;99.90;;;;;;5035852;28;20174;-77
2023/09/26 22:25:27;;;;;;;9.05;8.25;;;12.10;99.90;;;;;;5035345;28;20568;-77
2023/09/26 22:27:52;;;;;;;9.63;8.65;;;12.10;99.90;;;;;;5053801;28;20163;-77
2023/09/26 22:30:19;;;;;;;10.65;8.30;;;12.10;99.90;;;;;;5035525;28;20223;-77
2023/09/26 22:32:44;;;;;;;10.32;8.43;;;12.10;99.90;;;;;;5035292;28;20166;-77
2023/09/26 22:35:10;;;;;;;9.60;8.60;;;12.10;99.90;;;;;;5035465;28;20228;-77
2023/09/26 22:37:35;;;;;;;11.43;9.80;;;12.00;99.90;;;;;;5035589;28;20202;-77
2023/09/26 22:40:03;;;;;;;12.80;9.30;;;12.00;99.90;;;;;;5036057;28;20174;-77
2023/09/26 22:42:51;;;;;;;9.27;8.48;;;11.90;99.90;;;;;;5035382;28;20171;-77
2023/09/26 22:45:17;;;;;;;10.52;8.35;;;11.80;99.90;;;;;;5053574;28;20174;-76
2023/09/26 22:47:43;;;;;;;8.80;8.00;;;11.80;99.90;;;;;;5035393;28;20233;-76
2023/09/26 22:50:08;;;;;;;9.45;8.55;;;11.80;99.90;;;;;;5052951;28;20190;-76
2023/09/26 22:52:34;;;;;;;9.70;8.40;;;11.70;99.90;;;;;;5035838;28;20182;-76
2023/09/26 22:55:00;;;;;;;10.00;8.02;;;11.70;99.90;;;;;;5039132;28;20186;-76
2023/09/26 22:57:26;;;;;;;9.25;7.90;;;11.70;99.90;;;;;;5039694;28;20186;-77
2023/09/26 22:59:51;;;;;;;8.60;7.82;;;11.60;99.90;;;;;;5039205;28;20188;-77
2023/09/26 23:02:17;;;;;;;8.82;7.93;;;11.60;99.90;;;;;;5056993;28;20194;-77
2023/09/26 23:04:59;;;;;;;9.70;7.57;;;11.60;99.90;;;;;;5057287;28;20190;-77